Time;durP1;ratioP1;P1;durP2;ratioP2;P2;SDS_P1;SDS_P2;PMS_P1;PMS_P2;Temp;Humidity;BMP_temperature;BMP_pressure;BME280_temperature;BME280_humidity;BME280_pressure;Samples;Min_cycle;Max_cycle;Signal;HPM_P1;HPM_P2
2023/11/13 00:01:13;;;;;;;9.27;2.53;;;6.80;99.90;;;;;;4941485;29;20477;-76
2023/11/13 00:04:00;;;;;;;5.20;2.47;;;6.80;99.90;;;;;;4911627;29;20114;-76
2023/11/13 00:06:46;;;;;;;4.67;2.37;;;6.80;99.90;;;;;;4911704;29;20078;-76
2023/11/13 00:09:33;;;;;;;4.15;2.40;;;6.80;99.90;;;;;;4925657;28;20075;-77
2023/11/13 00:12:19;;;;;;;6.93;2.80;;;6.70;99.90;;;;;;4945963;29;20042;-76
2023/11/13 00:15:07;;;;;;;4.43;2.50;;;6.60;99.90;;;;;;4945866;29;20101;-77
2023/11/13 00:17:54;;;;;;;4.53;2.70;;;6.50;99.90;;;;;;4930521;29;20124;-76
2023/11/13 00:20:48;;;;;;;6.10;2.65;;;6.60;99.90;;;;;;4945050;29;20039;-76
2023/11/13 00:23:37;;;;;;;7.60;2.97;;;6.50;99.90;;;;;;4932349;29;20043;-76
2023/11/13 00:26:23;;;;;;;4.60;2.33;;;6.50;99.90;;;;;;4918539;29;20049;-76
2023/11/13 00:29:11;;;;;;;5.18;2.45;;;6.40;99.90;;;;;;4930621;29;20039;-75
2023/11/13 00:31:58;;;;;;;7.28;2.80;;;6.40;99.90;;;;;;4927171;29;20397;-76
2023/11/13 00:34:44;;;;;;;6.67;2.67;;;6.40;99.90;;;;;;4925113;29;20040;-75
2023/11/13 00:37:30;;;;;;;6.78;3.03;;;6.40;99.90;;;;;;4925712;29;20039;-76
2023/11/13 00:40:17;;;;;;;5.03;2.60;;;6.40;99.90;;;;;;4954806;29;20051;-76
2023/11/13 00:43:05;;;;;;;4.45;2.50;;;6.30;99.90;;;;;;4922597;29;20053;-76
2023/11/13 00:45:52;;;;;;;6.05;2.47;;;6.30;99.90;;;;;;4938911;29;20051;-76
2023/11/13 00:48:40;;;;;;;9.00;2.42;;;6.30;99.90;;;;;;4938572;29;20043;-76
2023/11/13 00:51:26;;;;;;;7.80;2.40;;;6.30;99.90;;;;;;4927882;28;20404;-76
2023/11/13 00:54:13;;;;;;;8.45;3.17;;;6.30;99.90;;;;;;4912029;29;20035;-76
2023/11/13 00:57:00;;;;;;;7.32;2.88;;;6.30;99.90;;;;;;4911259;29;20380;-76
2023/11/13 00:59:46;;;;;;;5.33;2.77;;;6.30;99.90;;;;;;4943355;29;20035;-76
2023/11/13 01:02:34;;;;;;;7.15;3.00;;;6.20;99.90;;;;;;4917220;29;20035;-76
2023/11/13 01:05:21;;;;;;;5.22;2.60;;;6.20;99.90;;;;;;4925544;29;20044;-76
2023/11/13 01:08:08;;;;;;;5.32;2.60;;;6.20;99.90;;;;;;4911315;29;20148;-76
2023/11/13 01:10:55;;;;;;;6.00;2.83;;;6.10;99.90;;;;;;4942275;29;20110;-76
2023/11/13 01:13:43;;;;;;;5.65;2.75;;;6.10;99.90;;;;;;4924604;29;20039;-76
2023/11/13 01:16:31;;;;;;;5.43;2.20;;;6.00;99.90;;;;;;4927300;29;20059;-76
2023/11/13 01:19:18;;;;;;;6.32;2.67;;;6.00;99.90;;;;;;4936003;29;20039;-76
2023/11/13 01:22:05;;;;;;;6.95;2.88;;;5.90;99.90;;;;;;4925814;29;20127;-76
2023/11/13 01:24:52;;;;;;;6.90;2.30;;;5.90;99.90;;;;;;4911531;29;20103;-76
2023/11/13 01:27:40;;;;;;;4.20;2.30;;;5.90;99.90;;;;;;4911024;29;20051;-76
2023/11/13 01:30:26;;;;;;;6.88;1.95;;;5.90;99.90;;;;;;4912442;29;20131;-76
2023/11/13 01:33:12;;;;;;;4.70;2.40;;;5.90;99.90;;;;;;4943556;29;20059;-76
2023/11/13 01:36:00;;;;;;;6.30;2.42;;;5.90;99.90;;;;;;4941440;29;20098;-76
2023/11/13 01:38:48;;;;;;;5.05;2.30;;;5.90;99.90;;;;;;4930112;29;20039;-76
2023/11/13 01:41:38;;;;;;;3.55;2.17;;;5.80;99.90;;;;;;4920694;29;20043;-76
2023/11/13 01:44:26;;;;;;;5.53;2.35;;;5.80;99.90;;;;;;4942485;29;20045;-76
2023/11/13 01:47:14;;;;;;;6.97;2.75;;;5.80;99.90;;;;;;4932067;29;20048;-76
2023/11/13 01:50:02;;;;;;;6.82;2.72;;;5.70;99.90;;;;;;4925495;29;20036;-75
2023/11/13 01:52:49;;;;;;;5.22;2.42;;;5.70;99.90;;;;;;4936735;29;20126;-75
2023/11/13 01:55:36;;;;;;;7.25;2.50;;;5.70;99.90;;;;;;4923379;29;20495;-76
2023/11/13 01:58:25;;;;;;;5.35;2.40;;;5.60;99.90;;;;;;4928107;29;20058;-76
2023/11/13 02:01:12;;;;;;;5.97;2.50;;;5.60;99.90;;;;;;4915199;29;20074;-75
2023/11/13 02:03:58;;;;;;;4.20;2.27;;;5.60;99.90;;;;;;4922843;29;20054;-76
2023/11/13 02:06:45;;;;;;;4.75;2.83;;;5.50;99.90;;;;;;4929358;29;20063;-75
2023/11/13 02:09:33;;;;;;;3.92;2.53;;;5.40;99.90;;;;;;4938142;29;20122;-75
2023/11/13 02:12:20;;;;;;;2.37;1.80;;;5.40;99.90;;;;;;4909654;29;20044;-75
2023/11/13 02:15:07;;;;;;;5.80;2.40;;;5.40;99.90;;;;;;4935801;29;20274;-75
2023/11/13 02:18:04;;;;;;;6.75;2.60;;;5.40;99.90;;;;;;4925525;29;20046;-77
2023/11/13 02:20:50;;;;;;;6.18;2.53;;;5.30;99.90;;;;;;4923032;29;20058;-77
2023/11/13 02:23:37;;;;;;;5.07;2.40;;;5.30;99.90;;;;;;4940907;29;20397;-77
2023/11/13 02:26:24;;;;;;;3.80;2.13;;;5.20;99.90;;;;;;4956204;29;20047;-77
2023/11/13 02:29:12;;;;;;;3.78;2.42;;;5.20;99.90;;;;;;4949820;29;20287;-77
2023/11/13 02:31:59;;;;;;;3.93;2.00;;;5.20;99.90;;;;;;4911205;29;20143;-77
2023/11/13 02:34:46;;;;;;;4.90;2.50;;;5.20;99.90;;;;;;4915054;29;20043;-77
2023/11/13 02:37:34;;;;;;;5.10;2.22;;;5.20;99.90;;;;;;4917055;29;20047;-77
2023/11/13 02:40:21;;;;;;;6.97;2.38;;;5.20;99.90;;;;;;4915643;29;20118;-77
2023/11/13 02:43:08;;;;;;;5.93;2.57;;;5.20;99.90;;;;;;4914732;29;20050;-77
2023/11/13 02:45:55;;;;;;;4.65;2.50;;;5.20;99.90;;;;;;4927786;29;20130;-77
2023/11/13 02:48:43;;;;;;;5.97;2.20;;;5.20;99.90;;;;;;4926416;29;20052;-77
2023/11/13 02:51:30;;;;;;;9.15;2.40;;;5.10;99.90;;;;;;4913990;29;20043;-77
2023/11/13 02:54:19;;;;;;;3.63;2.20;;;5.10;99.90;;;;;;4929212;29;20412;-77
2023/11/13 02:57:07;;;;;;;6.95;2.25;;;5.10;99.90;;;;;;4927253;29;20373;-77
2023/11/13 02:59:54;;;;;;;4.30;2.00;;;5.10;99.90;;;;;;4914725;29;20156;-77
2023/11/13 03:02:42;;;;;;;4.73;2.30;;;5.00;99.90;;;;;;4921621;29;20520;-77
2023/11/13 03:05:29;;;;;;;4.30;1.90;;;4.90;99.90;;;;;;4937179;29;20062;-77
2023/11/13 03:08:16;;;;;;;7.27;2.67;;;4.90;99.90;;;;;;4925803;29;20064;-77
2023/11/13 03:11:04;;;;;;;7.37;2.73;;;4.80;99.90;;;;;;4946851;29;20046;-77
2023/11/13 03:13:51;;;;;;;5.35;2.15;;;4.90;99.90;;;;;;4924714;29;20039;-77
2023/11/13 03:16:38;;;;;;;5.63;2.30;;;4.80;99.90;;;;;;4931534;29;20039;-77
2023/11/13 03:19:26;;;;;;;5.63;2.10;;;4.80;99.90;;;;;;4944396;29;20502;-77
2023/11/13 03:22:13;;;;;;;5.05;2.33;;;4.80;99.90;;;;;;4958756;29;20039;-77
2023/11/13 03:25:00;;;;;;;4.03;2.28;;;4.80;99.90;;;;;;4931879;29;20094;-77
2023/11/13 03:27:47;;;;;;;4.93;2.70;;;4.80;99.90;;;;;;4932959;29;20058;-77
2023/11/13 03:30:37;;;;;;;5.40;3.05;;;4.80;99.90;;;;;;4932483;29;20031;-77
2023/11/13 03:33:25;;;;;;;5.32;2.20;;;4.80;99.90;;;;;;4945800;29;20046;-77
2023/11/13 03:36:12;;;;;;;7.55;2.30;;;4.70;99.90;;;;;;4931944;29;20101;-77
2023/11/13 03:39:00;;;;;;;6.13;2.10;;;4.80;99.90;;;;;;4932596;29;20118;-77
2023/11/13 03:41:47;;;;;;;4.17;1.83;;;4.70;99.90;;;;;;4900869;29;20043;-77
2023/11/13 03:44:34;;;;;;;2.33;1.58;;;4.70;99.90;;;;;;4925314;29;20044;-77
2023/11/13 03:47:20;;;;;;;5.88;2.40;;;4.70;99.90;;;;;;4925539;29;20055;-77
2023/11/13 03:50:08;;;;;;;4.82;2.08;;;4.70;99.90;;;;;;4926904;29;20039;-77
2023/11/13 03:52:55;;;;;;;5.60;2.40;;;4.70;99.90;;;;;;4942682;29;20074;-77
2023/11/13 03:55:43;;;;;;;8.48;2.40;;;4.60;99.90;;;;;;4931671;29;20035;-77
2023/11/13 03:58:30;;;;;;;5.63;2.40;;;4.60;99.90;;;;;;4957983;29;20098;-77
2023/11/13 04:01:17;;;;;;;5.13;2.50;;;4.60;99.90;;;;;;4932561;29;20485;-77
2023/11/13 04:04:05;;;;;;;4.15;2.15;;;4.60;99.90;;;;;;4938542;29;20783;-77
2023/11/13 04:06:52;;;;;;;5.32;2.55;;;4.50;99.90;;;;;;4912872;29;20050;-77
2023/11/13 04:09:39;;;;;;;6.95;2.50;;;4.50;99.90;;;;;;4913134;29;20062;-77
2023/11/13 04:12:26;;;;;;;5.75;2.70;;;4.60;99.90;;;;;;4913319;29;20091;-77
2023/11/13 04:15:12;;;;;;;5.32;2.08;;;4.60;99.90;;;;;;4913858;29;20114;-77
2023/11/13 04:17:58;;;;;;;3.80;2.22;;;4.50;99.90;;;;;;4913356;29;20195;-76
2023/11/13 04:20:44;;;;;;;4.50;2.50;;;4.50;99.90;;;;;;4942617;29;20055;-77
2023/11/13 04:23:31;;;;;;;4.15;2.38;;;4.50;99.90;;;;;;4944639;29;20097;-77
2023/11/13 04:26:18;;;;;;;3.30;2.30;;;4.50;99.90;;;;;;4930691;29;20048;-77
2023/11/13 04:29:06;;;;;;;5.03;2.50;;;4.40;99.90;;;;;;4925593;29;20051;-77
2023/11/13 04:31:53;;;;;;;6.30;2.22;;;4.40;99.90;;;;;;4912775;29;20086;-77
2023/11/13 04:34:40;;;;;;;4.97;2.47;;;4.50;99.90;;;;;;4938216;29;20341;-77
2023/11/13 04:37:28;;;;;;;6.10;2.30;;;4.40;99.90;;;;;;4930318;29;20050;-76
2023/11/13 04:40:16;;;;;;;4.38;2.65;;;4.40;99.90;;;;;;4933959;29;20302;-77
2023/11/13 04:43:02;;;;;;;3.55;2.47;;;4.50;99.90;;;;;;4925081;29;20043;-77
2023/11/13 04:45:49;;;;;;;5.03;2.53;;;4.40;99.90;;;;;;4944543;29;20550;-77
2023/11/13 04:48:40;;;;;;;4.93;2.03;;;4.40;99.90;;;;;;4932163;29;20091;-76
2023/11/13 04:51:27;;;;;;;6.25;2.10;;;4.40;99.90;;;;;;4926005;29;20496;-77
2023/11/13 04:54:14;;;;;;;5.00;2.45;;;4.30;99.90;;;;;;4925532;29;20468;-77
2023/11/13 04:57:01;;;;;;;4.85;2.33;;;4.30;99.90;;;;;;4938190;29;20055;-77
2023/11/13 04:59:49;;;;;;;5.70;2.80;;;4.30;99.90;;;;;;4914815;29;20040;-77
2023/11/13 05:02:37;;;;;;;5.47;2.50;;;4.30;99.90;;;;;;4914657;29;20645;-77
2023/11/13 05:05:25;;;;;;;4.57;2.60;;;4.30;99.90;;;;;;4944614;29;20408;-77
2023/11/13 05:08:14;;;;;;;6.20;2.38;;;4.40;99.90;;;;;;4932295;29;20085;-77
2023/11/13 05:11:02;;;;;;;3.35;2.17;;;4.40;99.90;;;;;;4944227;29;20043;-77
2023/11/13 05:13:51;;;;;;;5.88;2.58;;;4.40;99.90;;;;;;4924146;29;20051;-77
2023/11/13 05:16:37;;;;;;;6.25;3.03;;;4.50;99.90;;;;;;4926513;29;20350;-77
2023/11/13 05:19:25;;;;;;;4.05;2.10;;;4.50;99.90;;;;;;4930772;29;20042;-77
2023/11/13 05:22:12;;;;;;;4.33;2.10;;;4.50;99.90;;;;;;4943201;29;20039;-77
2023/11/13 05:24:59;;;;;;;4.80;2.20;;;4.50;99.90;;;;;;4943243;29;20290;-77
2023/11/13 05:27:46;;;;;;;5.77;2.37;;;4.50;99.90;;;;;;4942996;29;20054;-77
2023/11/13 05:30:36;;;;;;;3.17;1.93;;;4.50;99.90;;;;;;4925798;29;20267;-77
2023/11/13 05:33:23;;;;;;;7.85;2.38;;;4.50;99.90;;;;;;4925178;29;20338;-77
2023/11/13 05:36:10;;;;;;;5.03;2.70;;;4.50;99.90;;;;;;4918479;29;20054;-76
2023/11/13 05:38:57;;;;;;;8.20;2.70;;;4.50;99.90;;;;;;4935664;29;20063;-76
2023/11/13 05:41:44;;;;;;;5.35;2.65;;;4.50;99.90;;;;;;4912261;29;20720;-77
2023/11/13 05:44:34;;;;;;;5.63;2.75;;;4.40;99.90;;;;;;4924390;29;20384;-76
2023/11/13 05:47:21;;;;;;;7.22;2.50;;;4.40;99.90;;;;;;4924252;29;20047;-77
2023/11/13 05:50:09;;;;;;;7.00;2.83;;;4.40;99.90;;;;;;4923445;29;20344;-77
2023/11/13 05:52:56;;;;;;;6.50;2.70;;;4.40;99.90;;;;;;4919452;29;20040;-77
2023/11/13 05:55:43;;;;;;;7.15;3.08;;;4.30;99.90;;;;;;4927334;29;20069;-77
2023/11/13 05:58:31;;;;;;;7.97;2.90;;;4.20;99.90;;;;;;4937479;29;20044;-77
2023/11/13 06:01:18;;;;;;;6.87;2.63;;;4.20;99.90;;;;;;4946860;29;20075;-76
2023/11/13 06:04:05;;;;;;;7.50;2.33;;;4.20;99.90;;;;;;4903283;29;20106;-77
2023/11/13 06:06:53;;;;;;;5.00;2.45;;;4.10;99.90;;;;;;4916464;28;20149;-76
2023/11/13 06:09:42;;;;;;;8.63;3.08;;;4.10;99.90;;;;;;4933478;29;20043;-76
2023/11/13 06:12:29;;;;;;;5.30;2.50;;;4.00;99.90;;;;;;4933566;29;20494;-77
2023/11/13 06:15:17;;;;;;;6.30;2.95;;;4.00;99.90;;;;;;4947734;29;20058;-76
2023/11/13 06:18:06;;;;;;;8.40;2.85;;;4.00;99.90;;;;;;4928878;29;20031;-75
2023/11/13 06:20:53;;;;;;;3.88;2.55;;;4.00;99.90;;;;;;4959812;29;20043;-75
2023/11/13 06:23:42;;;;;;;6.43;3.10;;;4.00;99.90;;;;;;4952496;29;20035;-76
2023/11/13 06:26:29;;;;;;;6.82;2.83;;;4.00;99.90;;;;;;4918179;29;20384;-76
2023/11/13 06:29:16;;;;;;;5.57;2.90;;;4.00;99.90;;;;;;4915362;29;20465;-75
2023/11/13 06:32:02;;;;;;;4.53;2.80;;;4.00;99.90;;;;;;4927377;29;20043;-75
2023/11/13 06:34:50;;;;;;;5.50;2.90;;;4.00;99.90;;;;;;4914294;29;20035;-75
2023/11/13 06:37:37;;;;;;;4.13;2.63;;;4.00;99.90;;;;;;4944903;29;20043;-75
2023/11/13 06:40:23;;;;;;;4.43;2.80;;;4.00;99.90;;;;;;4926475;29;20051;-75
2023/11/13 06:43:10;;;;;;;5.68;2.72;;;4.00;99.90;;;;;;4917445;29;20483;-76
2023/11/13 06:46:00;;;;;;;6.17;3.10;;;4.10;99.90;;;;;;4914128;29;20171;-75
2023/11/13 06:48:48;;;;;;;5.75;2.72;;;4.10;99.90;;;;;;4923379;29;20051;-76
2023/11/13 06:51:36;;;;;;;5.85;2.72;;;4.20;99.90;;;;;;4960169;29;20122;-75
2023/11/13 06:54:24;;;;;;;5.10;3.03;;;4.20;99.90;;;;;;4944926;29;20034;-75
2023/11/13 06:57:12;;;;;;;13.00;4.03;;;4.20;99.90;;;;;;4955083;29;20047;-75
2023/11/13 07:00:00;;;;;;;5.20;3.13;;;4.20;99.90;;;;;;4939611;29;20051;-75
2023/11/13 07:02:47;;;;;;;4.60;2.83;;;4.20;99.90;;;;;;4913797;29;20048;-75
2023/11/13 07:05:34;;;;;;;4.80;2.97;;;4.30;99.90;;;;;;4913008;29;20043;-75
2023/11/13 07:08:21;;;;;;;6.00;3.00;;;4.30;99.90;;;;;;4925992;29;20047;-75
2023/11/13 07:11:14;;;;;;;5.25;2.63;;;4.30;99.90;;;;;;4919705;29;20047;-75
2023/11/13 07:14:02;;;;;;;7.65;3.75;;;4.40;99.90;;;;;;4926596;29;20040;-76
2023/11/13 07:16:50;;;;;;;5.25;2.63;;;4.40;99.90;;;;;;4918584;29;20381;-75
2023/11/13 07:19:38;;;;;;;5.22;2.45;;;4.50;99.90;;;;;;4934835;29;20051;-75
2023/11/13 07:22:25;;;;;;;3.92;2.63;;;4.50;99.90;;;;;;4932054;29;20031;-76
2023/11/13 07:25:12;;;;;;;4.43;2.65;;;4.50;99.90;;;;;;4931082;29;20050;-76
2023/11/13 07:28:00;;;;;;;5.43;2.70;;;4.50;99.90;;;;;;4920637;29;20066;-75
2023/11/13 07:30:47;;;;;;;5.85;2.63;;;4.50;99.90;;;;;;4958942;29;20596;-75
2023/11/13 07:33:34;;;;;;;8.88;2.78;;;4.50;99.90;;;;;;4926749;29;20070;-75
2023/11/13 07:36:25;;;;;;;6.55;2.88;;;4.50;99.90;;;;;;4912598;29;20099;-76
2023/11/13 07:39:12;;;;;;;4.57;2.70;;;4.60;99.90;;;;;;4926762;29;20035;-75
2023/11/13 07:41:58;;;;;;;6.47;2.20;;;4.60;99.90;;;;;;4913873;29;20047;-75
2023/11/13 07:44:52;;;;;;;5.70;2.50;;;4.60;99.90;;;;;;4918409;29;20054;-75
2023/11/13 07:47:39;;;;;;;6.38;2.58;;;4.60;99.90;;;;;;4914781;29;20051;-75
2023/11/13 07:50:27;;;;;;;7.22;2.45;;;4.60;99.90;;;;;;4925711;29;20032;-75
2023/11/13 07:53:13;;;;;;;;;;;4.70;99.90;;;;;;4944492;28;20405;-75
2023/11/13 07:55:59;;;;;;;5.40;2.50;;;4.70;99.90;;;;;;4913161;29;19942;-75
2023/11/13 07:58:47;;;;;;;5.63;2.38;;;4.70;99.90;;;;;;4900794;29;20043;-75
2023/11/13 08:01:34;;;;;;;6.63;2.63;;;4.80;99.90;;;;;;4914376;29;20050;-75
2023/11/13 08:04:22;;;;;;;5.22;2.72;;;4.80;99.90;;;;;;4942941;29;20039;-75
2023/11/13 08:07:09;;;;;;;;;;;4.90;99.90;;;;;;4930831;29;20055;-75
2023/11/13 08:09:55;;;;;;;8.57;4.05;;;4.90;99.90;;;;;;4928869;29;19915;-75
2023/11/13 08:12:49;;;;;;;9.30;4.30;;;4.90;99.90;;;;;;4925050;29;20031;-75
2023/11/13 08:15:37;;;;;;;12.18;4.22;;;5.00;99.90;;;;;;4912218;29;20130;-75
2023/11/13 08:18:24;;;;;;;11.75;6.30;;;5.00;99.90;;;;;;4912303;29;20039;-75
2023/11/13 08:21:13;;;;;;;11.77;6.10;;;4.90;99.90;;;;;;4930203;29;20354;-76
2023/11/13 08:24:00;;;;;;;7.13;4.80;;;5.00;99.90;;;;;;4928707;29;20067;-77
2023/11/13 08:26:47;;;;;;;10.27;5.37;;;5.00;99.90;;;;;;4949527;28;20043;-75
2023/11/13 08:29:35;;;;;;;8.73;4.47;;;5.00;99.90;;;;;;4920481;29;20039;-76
2023/11/13 08:32:22;;;;;;;;;;;5.10;99.90;;;;;;4944806;29;20471;-76
2023/11/13 08:35:12;;;;;;;7.93;3.35;;;5.10;99.90;;;;;;4945392;29;19926;-76
2023/11/13 08:37:59;;;;;;;8.48;3.13;;;5.10;99.90;;;;;;4931649;29;20085;-76
2023/11/13 08:40:46;;;;;;;8.37;2.73;;;5.20;99.90;;;;;;4930739;29;20051;-76
2023/11/13 08:43:33;;;;;;;8.13;2.88;;;5.30;99.90;;;;;;4931399;29;20278;-76
2023/11/13 08:46:21;;;;;;;7.33;2.57;;;5.40;99.90;;;;;;4926873;29;20043;-76
2023/11/13 08:49:09;;;;;;;3.42;2.33;;;5.40;99.90;;;;;;4913403;29;20165;-76
2023/11/13 08:51:58;;;;;;;5.63;2.30;;;5.40;99.90;;;;;;4923799;29;20461;-76
2023/11/13 08:54:45;;;;;;;8.15;2.25;;;5.50;99.90;;;;;;4916706;29;20035;-76
2023/11/13 08:57:33;;;;;;;5.47;2.00;;;5.50;99.90;;;;;;4929659;29;20047;-76
2023/11/13 09:00:21;;;;;;;4.10;2.17;;;5.60;99.90;;;;;;4925360;29;20124;-76
2023/11/13 09:03:17;;;;;;;3.42;1.90;;;5.60;99.90;;;;;;4930692;29;20480;-76
2023/11/13 09:06:08;;;;;;;5.53;2.53;;;5.70;99.90;;;;;;4918181;29;20103;-76
2023/11/13 09:08:54;;;;;;;8.90;2.28;;;5.70;99.90;;;;;;4925715;29;20119;-76
2023/11/13 09:11:42;;;;;;;6.03;2.30;;;5.80;99.90;;;;;;4936619;29;20098;-76
2023/11/13 09:14:34;;;;;;;7.13;2.08;;;5.90;99.90;;;;;;4930533;29;20039;-76
2023/11/13 09:17:24;;;;;;;5.20;2.55;;;6.00;99.90;;;;;;4911790;29;20048;-76
2023/11/13 09:20:16;;;;;;;6.25;2.25;;;6.10;99.90;;;;;;4928381;29;20050;-76
2023/11/13 09:23:06;;;;;;;6.32;2.67;;;6.10;99.90;;;;;;4916998;29;20031;-76
2023/11/13 09:25:53;;;;;;;4.78;2.75;;;6.20;99.90;;;;;;4922121;29;20066;-76
2023/11/13 09:28:40;;;;;;;8.50;3.03;;;6.30;99.90;;;;;;4935563;29;20039;-76
2023/11/13 09:31:27;;;;;;;6.17;3.10;;;6.30;99.90;;;;;;4936902;29;20035;-76
2023/11/13 09:34:16;;;;;;;8.52;3.03;;;6.50;99.90;;;;;;4924036;29;20327;-75
2023/11/13 09:37:07;;;;;;;;;;;6.50;99.90;;;;;;4925487;29;20087;-75
2023/11/13 09:39:54;;;;;;;8.98;3.63;;;6.60;99.90;;;;;;4936808;29;19916;-76
2023/11/13 09:42:49;;;;;;;5.78;3.17;;;6.70;99.90;;;;;;4930282;29;20337;-75
2023/11/13 09:45:37;;;;;;;7.28;4.25;;;6.80;99.90;;;;;;4943035;29;20118;-75
2023/11/13 09:48:30;;;;;;;8.70;3.97;;;6.90;99.90;;;;;;4911385;29;20043;-75
2023/11/13 09:51:17;;;;;;;10.90;4.00;;;7.00;99.90;;;;;;4936384;29;20039;-75
2023/11/13 09:54:05;;;;;;;8.23;3.88;;;7.20;99.90;;;;;;4923715;29;20047;-76
2023/11/13 09:56:53;;;;;;;9.05;4.43;;;7.20;99.90;;;;;;4922829;29;20473;-76
2023/11/13 09:59:40;;;;;;;;;;;7.30;99.90;;;;;;4934928;29;20447;-76
2023/11/13 10:02:28;;;;;;;8.35;4.90;;;7.40;99.90;;;;;;4924215;29;19921;-75
2023/11/13 10:05:16;;;;;;;34.20;5.70;;;7.40;99.90;;;;;;4942557;29;20039;-76
2023/11/13 10:08:03;;;;;;;9.38;4.93;;;7.50;99.90;;;;;;4924559;29;20070;-76
2023/11/13 10:10:50;;;;;;;7.82;4.95;;;7.50;99.90;;;;;;4924450;29;20071;-76
2023/11/13 10:13:37;;;;;;;10.18;6.13;;;7.50;99.90;;;;;;4923616;29;20031;-76
2023/11/13 10:16:27;;;;;;;10.67;5.50;;;7.50;99.90;;;;;;4952490;29;20534;-76
2023/11/13 10:19:17;;;;;;;17.08;7.38;;;7.60;99.90;;;;;;4917146;29;20057;-76
2023/11/13 10:22:14;;;;;;;14.45;6.95;;;7.50;99.90;;;;;;4912057;29;20476;-75
2023/11/13 10:25:02;;;;;;;8.57;5.10;;;7.60;99.90;;;;;;4910881;29;20048;-76
2023/11/13 10:28:02;;;;;;;11.88;5.95;;;7.60;99.90;;;;;;4911266;29;20059;-76
2023/11/13 10:30:56;;;;;;;8.10;4.97;;;7.60;99.90;;;;;;4924386;29;20040;-76
2023/11/13 10:33:55;;;;;;;12.13;5.13;;;7.60;99.90;;;;;;4924620;29;20043;-76
2023/11/13 10:36:44;;;;;;;11.38;4.78;;;7.70;99.90;;;;;;4924981;29;20113;-76
2023/11/13 10:39:36;;;;;;;9.93;5.35;;;7.60;99.90;;;;;;4929303;29;20035;-76
2023/11/13 10:42:25;;;;;;;10.38;5.20;;;7.70;99.90;;;;;;4915914;29;20440;-76
2023/11/13 10:45:12;;;;;;;11.15;5.40;;;7.70;99.90;;;;;;4917573;29;20394;-76
2023/11/13 10:47:58;;;;;;;12.27;5.88;;;7.60;99.90;;;;;;4898262;29;20086;-76
2023/11/13 10:50:45;;;;;;;10.23;6.07;;;7.70;99.90;;;;;;4896784;29;20043;-76
2023/11/13 10:53:40;;;;;;;9.73;5.90;;;7.60;99.90;;;;;;4910195;29;20341;-76
2023/11/13 10:56:28;;;;;;;9.52;5.80;;;7.60;99.90;;;;;;4929154;29;20417;-76
2023/11/13 10:59:16;;;;;;;12.77;6.00;;;7.60;99.90;;;;;;4923025;29;20500;-76
2023/11/13 11:02:05;;;;;;;10.27;6.50;;;7.60;99.90;;;;;;4923638;29;20359;-75
2023/11/13 11:05:09;;;;;;;9.27;5.13;;;7.70;99.90;;;;;;4926987;29;20484;-76
2023/11/13 11:07:57;;;;;;;9.45;5.35;;;7.70;99.90;;;;;;4920901;29;20119;-76
2023/11/13 11:10:45;;;;;;;11.20;6.07;;;7.70;99.90;;;;;;4924224;29;20036;-76
2023/11/13 11:13:34;;;;;;;7.88;5.53;;;7.60;99.90;;;;;;4897300;29;20040;-76
2023/11/13 11:16:31;;;;;;;14.10;6.47;;;7.60;99.90;;;;;;4895658;29;20130;-76
2023/11/13 11:19:40;;;;;;;9.20;6.17;;;7.60;99.90;;;;;;4896820;29;20051;-75
2023/11/13 11:22:45;;;;;;;13.25;6.95;;;7.60;99.90;;;;;;4905796;29;20040;-75
2023/11/13 11:25:48;;;;;;;12.60;7.05;;;7.60;99.90;;;;;;4893300;29;20071;-76
2023/11/13 11:28:52;;;;;;;12.35;7.07;;;7.50;99.90;;;;;;4897068;29;20417;-76
2023/11/13 11:31:44;;;;;;;10.57;7.13;;;7.50;99.90;;;;;;4928335;29;20066;-76
2023/11/13 11:34:31;;;;;;;9.85;6.00;;;7.50;99.90;;;;;;4925060;29;20464;-76
2023/11/13 11:37:19;;;;;;;13.50;6.95;;;7.50;99.90;;;;;;4914017;29;20380;-76
2023/11/13 11:40:08;;;;;;;9.70;6.13;;;7.50;99.90;;;;;;4929740;29;20125;-76
2023/11/13 11:42:55;;;;;;;9.10;6.32;;;7.50;99.90;;;;;;4939990;29;20037;-76
2023/11/13 11:45:51;;;;;;;9.25;5.95;;;7.50;99.90;;;;;;4940213;29;20477;-75
2023/11/13 11:48:38;;;;;;;9.55;6.18;;;7.60;99.90;;;;;;4913482;29;20040;-76
2023/11/13 11:51:25;;;;;;;8.90;5.83;;;7.50;99.90;;;;;;4926381;29;20071;-76
2023/11/13 11:54:12;;;;;;;11.73;7.55;;;7.50;99.90;;;;;;4925565;29;20267;-76
2023/11/13 11:57:03;;;;;;;13.73;6.47;;;7.50;99.90;;;;;;4917125;29;20039;-76
2023/11/13 11:59:51;;;;;;;8.57;6.63;;;7.60;99.90;;;;;;4931911;29;20035;-76
2023/11/13 12:02:38;;;;;;;12.75;6.93;;;7.60;99.90;;;;;;4945468;29;20408;-76
2023/11/13 12:05:25;;;;;;;10.55;6.88;;;7.60;99.90;;;;;;4922915;29;20031;-75
2023/11/13 12:08:12;;;;;;;11.97;6.73;;;7.60;99.90;;;;;;4921444;29;20114;-76
2023/11/13 12:11:00;;;;;;;14.05;6.70;;;7.60;99.90;;;;;;4945630;29;20047;-75
2023/11/13 12:13:47;;;;;;;12.07;6.30;;;7.60;99.90;;;;;;4926247;29;20031;-76
2023/11/13 12:16:33;;;;;;;11.98;7.07;;;7.60;99.90;;;;;;4923160;29;20126;-75
2023/11/13 12:19:23;;;;;;;11.32;6.45;;;7.60;99.90;;;;;;4931023;29;20039;-76
2023/11/13 12:22:10;;;;;;;11.48;5.93;;;7.60;99.90;;;;;;4926447;29;20114;-76
2023/11/13 12:24:57;;;;;;;9.95;6.18;;;7.70;99.90;;;;;;4938591;29;20041;-75
2023/11/13 12:27:47;;;;;;;13.07;6.53;;;7.70;99.90;;;;;;4937987;29;20048;-76
2023/11/13 12:30:34;;;;;;;11.98;6.97;;;7.70;99.90;;;;;;4943309;29;20487;-76
2023/11/13 12:33:20;;;;;;;7.93;5.77;;;7.70;99.90;;;;;;4950895;29;20067;-75
2023/11/13 12:36:09;;;;;;;9.13;6.07;;;7.70;99.90;;;;;;4951239;29;20404;-76
2023/11/13 12:39:01;;;;;;;10.45;6.40;;;7.70;99.90;;;;;;4957379;29;20117;-76
2023/11/13 12:41:47;;;;;;;10.52;6.10;;;7.70;99.90;;;;;;4930733;29;20074;-75
2023/11/13 12:44:34;;;;;;;11.85;6.93;;;7.80;99.90;;;;;;4944205;29;20039;-75
2023/11/13 12:47:23;;;;;;;11.75;7.07;;;7.80;99.90;;;;;;4938047;29;20087;-76
2023/11/13 12:50:14;;;;;;;10.98;7.18;;;7.80;99.90;;;;;;4899896;29;20070;-75
2023/11/13 12:53:01;;;;;;;15.05;7.57;;;7.80;99.90;;;;;;4931232;29;20046;-75
2023/11/13 12:55:49;;;;;;;16.20;7.63;;;7.80;99.90;;;;;;4944725;29;20544;-76
2023/11/13 12:58:36;;;;;;;10.88;6.65;;;7.80;99.90;;;;;;4944165;29;20376;-75
2023/11/13 13:01:23;;;;;;;14.45;6.63;;;7.80;99.90;;;;;;4930323;29;20189;-76
2023/11/13 13:04:10;;;;;;;8.75;6.32;;;7.70;99.90;;;;;;4943343;29;20035;-75
2023/11/13 13:06:58;;;;;;;9.48;5.13;;;7.80;99.90;;;;;;4937514;29;20126;-75
2023/11/13 13:09:46;;;;;;;7.25;5.05;;;7.80;99.90;;;;;;4911662;29;20091;-76
2023/11/13 13:12:34;;;;;;;8.70;5.50;;;7.80;99.90;;;;;;4911251;29;20057;-76
2023/11/13 13:15:21;;;;;;;8.27;4.93;;;7.90;99.90;;;;;;4925146;29;20063;-75
2023/11/13 13:18:08;;;;;;;8.50;5.18;;;7.90;99.90;;;;;;4924043;29;20536;-75
2023/11/13 13:20:55;;;;;;;8.10;4.47;;;7.90;99.90;;;;;;4954173;29;20071;-75
2023/11/13 13:23:43;;;;;;;7.28;4.70;;;7.90;99.90;;;;;;4930341;29;20050;-75
2023/11/13 13:26:30;;;;;;;6.13;4.20;;;8.00;99.90;;;;;;4931372;29;20042;-75
2023/11/13 13:29:19;;;;;;;5.67;4.10;;;8.00;99.90;;;;;;4929625;29;20058;-75
2023/11/13 13:32:08;;;;;;;6.80;4.15;;;8.00;99.90;;;;;;4929212;29;20355;-75
2023/11/13 13:34:56;;;;;;;9.15;4.30;;;8.00;99.90;;;;;;4930278;29;20097;-75
2023/11/13 13:37:44;;;;;;;6.07;4.35;;;8.00;99.90;;;;;;4930336;29;20118;-75
2023/11/13 13:40:32;;;;;;;6.53;3.97;;;8.00;99.90;;;;;;4937719;28;20042;-75
2023/11/13 13:43:19;;;;;;;;;;;7.90;99.90;;;;;;4918932;29;20126;-76
2023/11/13 13:46:09;;;;;;;6.07;3.40;;;8.00;99.90;;;;;;4956077;29;19989;-75
2023/11/13 13:48:57;;;;;;;6.15;3.88;;;7.90;99.90;;;;;;4943373;29;20047;-75
2023/11/13 13:51:45;;;;;;;6.43;4.07;;;7.90;99.90;;;;;;4918284;29;20039;-75
2023/11/13 13:54:33;;;;;;;9.00;3.85;;;7.90;99.90;;;;;;4931022;29;20063;-75
2023/11/13 13:57:20;;;;;;;6.07;3.13;;;7.80;99.90;;;;;;4916404;29;20039;-75
2023/11/13 14:00:10;;;;;;;5.20;3.20;;;7.80;99.90;;;;;;4925447;29;20051;-76
2023/11/13 14:03:07;;;;;;;7.20;4.13;;;7.80;99.90;;;;;;4917377;29;20059;-75
2023/11/13 14:05:55;;;;;;;6.57;3.60;;;7.90;99.90;;;;;;4918718;29;20511;-76
2023/11/13 14:08:44;;;;;;;7.25;3.58;;;7.80;99.90;;;;;;4917637;29;20561;-75
2023/11/13 14:11:34;;;;;;;5.95;3.30;;;7.80;99.90;;;;;;4930161;29;20031;-75
2023/11/13 14:14:21;;;;;;;5.20;2.85;;;7.80;99.90;;;;;;4939291;29;20044;-75
2023/11/13 14:17:09;;;;;;;5.63;3.65;;;7.80;99.90;;;;;;4924042;29;20388;-75
2023/11/13 14:19:56;;;;;;;3.75;2.70;;;7.80;99.90;;;;;;4916422;29;20036;-75
2023/11/13 14:22:47;;;;;;;5.18;3.22;;;7.80;99.90;;;;;;4942153;29;20042;-75
2023/11/13 14:25:34;;;;;;;6.90;2.72;;;7.80;99.90;;;;;;4930152;29;20074;-75
2023/11/13 14:28:21;;;;;;;4.03;2.75;;;7.80;99.90;;;;;;4923907;29;20334;-75
2023/11/13 14:31:09;;;;;;;5.10;2.80;;;7.80;99.90;;;;;;4958026;29;20035;-75
2023/11/13 14:33:56;;;;;;;5.10;2.95;;;7.70;99.90;;;;;;4946663;29;20360;-76
2023/11/13 14:36:44;;;;;;;5.38;3.30;;;7.70;99.90;;;;;;4960381;29;20127;-75
2023/11/13 14:39:31;;;;;;;6.70;2.80;;;7.70;99.90;;;;;;4959634;29;20055;-76
2023/11/13 14:42:17;;;;;;;4.80;2.80;;;7.70;99.90;;;;;;4960137;29;20077;-75
2023/11/13 14:45:06;;;;;;;4.32;2.70;;;7.60;99.90;;;;;;4933142;29;20303;-75
2023/11/13 14:47:54;;;;;;;4.05;2.25;;;7.60;99.90;;;;;;4933758;29;20078;-75